sensor_id;sensor_type;location;lat;lon;timestamp;P1;durP1;ratioP1;P2;durP2;ratioP2
17595;SDS011;8916;47.086;15.920;2022-12-26T00:01:55;37.22;;;18.98;;
17595;SDS011;8916;47.086;15.920;2022-12-26T00:04:26;37.78;;;19.98;;
17595;SDS011;8916;47.086;15.920;2022-12-26T00:07:15;36.30;;;20.17;;
17595;SDS011;8916;47.086;15.920;2022-12-26T00:09:45;34.85;;;18.75;;
17595;SDS011;8916;47.086;15.920;2022-12-26T00:12:14;38.97;;;20.67;;
17595;SDS011;8916;47.086;15.920;2022-12-26T00:14:43;40.20;;;21.15;;
17595;SDS011;8916;47.086;15.920;2022-12-26T00:17:14;42.80;;;21.17;;
17595;SDS011;8916;47.086;15.920;2022-12-26T00:19:43;48.33;;;23.30;;
17595;SDS011;8916;47.086;15.920;2022-12-26T00:22:12;43.95;;;22.08;;
17595;SDS011;8916;47.086;15.920;2022-12-26T00:24:42;37.60;;;22.05;;
17595;SDS011;8916;47.086;15.920;2022-12-26T00:27:11;46.90;;;24.60;;
17595;SDS011;8916;47.086;15.920;2022-12-26T00:29:40;46.83;;;25.05;;
17595;SDS011;8916;47.086;15.920;2022-12-26T00:32:09;46.20;;;25.67;;
17595;SDS011;8916;47.086;15.920;2022-12-26T00:34:40;45.92;;;25.10;;
17595;SDS011;8916;47.086;15.920;2022-12-26T00:37:09;43.05;;;22.75;;
17595;SDS011;8916;47.086;15.920;2022-12-26T00:39:38;47.28;;;24.13;;
17595;SDS011;8916;47.086;15.920;2022-12-26T00:42:08;49.00;;;25.48;;
17595;SDS011;8916;47.086;15.920;2022-12-26T00:44:37;44.22;;;24.75;;
17595;SDS011;8916;47.086;15.920;2022-12-26T00:47:06;40.92;;;21.75;;
17595;SDS011;8916;47.086;15.920;2022-12-26T00:49:35;38.60;;;21.15;;
17595;SDS011;8916;47.086;15.920;2022-12-26T00:52:26;37.55;;;20.27;;
17595;SDS011;8916;47.086;15.920;2022-12-26T00:54:55;32.58;;;19.13;;
17595;SDS011;8916;47.086;15.920;2022-12-26T00:57:24;34.53;;;19.23;;
17595;SDS011;8916;47.086;15.920;2022-12-26T00:59:53;40.08;;;19.08;;
17595;SDS011;8916;47.086;15.920;2022-12-26T01:02:23;32.35;;;17.23;;
17595;SDS011;8916;47.086;15.920;2022-12-26T01:05:08;29.50;;;16.08;;
17595;SDS011;8916;47.086;15.920;2022-12-26T01:07:40;26.17;;;14.88;;
17595;SDS011;8916;47.086;15.920;2022-12-26T01:10:29;30.05;;;15.73;;
17595;SDS011;8916;47.086;15.920;2022-12-26T01:12:58;30.15;;;16.73;;
17595;SDS011;8916;47.086;15.920;2022-12-26T01:15:27;33.88;;;17.80;;
17595;SDS011;8916;47.086;15.920;2022-12-26T01:17:57;30.60;;;16.33;;
17595;SDS011;8916;47.086;15.920;2022-12-26T01:20:27;28.45;;;15.50;;
17595;SDS011;8916;47.086;15.920;2022-12-26T01:22:57;29.92;;;15.75;;
17595;SDS011;8916;47.086;15.920;2022-12-26T01:25:27;31.08;;;16.13;;
17595;SDS011;8916;47.086;15.920;2022-12-26T01:27:56;32.92;;;17.05;;
17595;SDS011;8916;47.086;15.920;2022-12-26T01:30:25;34.13;;;17.98;;
17595;SDS011;8916;47.086;15.920;2022-12-26T01:32:54;35.55;;;20.50;;
17595;SDS011;8916;47.086;15.920;2022-12-26T01:35:24;35.35;;;20.00;;
17595;SDS011;8916;47.086;15.920;2022-12-26T01:37:53;37.03;;;17.75;;
17595;SDS011;8916;47.086;15.920;2022-12-26T01:40:24;31.55;;;15.75;;
17595;SDS011;8916;47.086;15.920;2022-12-26T01:42:53;32.08;;;17.92;;
17595;SDS011;8916;47.086;15.920;2022-12-26T01:45:24;39.22;;;18.25;;
17595;SDS011;8916;47.086;15.920;2022-12-26T01:47:57;36.13;;;18.40;;
17595;SDS011;8916;47.086;15.920;2022-12-26T01:50:34;30.27;;;16.67;;
17595;SDS011;8916;47.086;15.920;2022-12-26T01:53:10;28.33;;;16.80;;
17595;SDS011;8916;47.086;15.920;2022-12-26T01:55:46;27.02;;;15.35;;
17595;SDS011;8916;47.086;15.920;2022-12-26T01:58:20;33.70;;;17.08;;
17595;SDS011;8916;47.086;15.920;2022-12-26T02:00:55;46.42;;;21.10;;
17595;SDS011;8916;47.086;15.920;2022-12-26T02:03:24;37.35;;;18.33;;
17595;SDS011;8916;47.086;15.920;2022-12-26T02:06:11;35.05;;;18.35;;
17595;SDS011;8916;47.086;15.920;2022-12-26T02:08:42;34.42;;;17.13;;
17595;SDS011;8916;47.086;15.920;2022-12-26T02:11:16;29.13;;;16.55;;
17595;SDS011;8916;47.086;15.920;2022-12-26T02:13:51;31.70;;;17.23;;
17595;SDS011;8916;47.086;15.920;2022-12-26T02:16:21;33.42;;;17.08;;
17595;SDS011;8916;47.086;15.920;2022-12-26T02:18:51;32.50;;;17.00;;
17595;SDS011;8916;47.086;15.920;2022-12-26T02:21:28;43.78;;;18.55;;
17595;SDS011;8916;47.086;15.920;2022-12-26T02:24:42;44.88;;;21.92;;
17595;SDS011;8916;47.086;15.920;2022-12-26T02:30:51;41.33;;;21.88;;
17595;SDS011;8916;47.086;15.920;2022-12-26T02:33:38;42.22;;;22.75;;
17595;SDS011;8916;47.086;15.920;2022-12-26T02:36:29;40.90;;;22.70;;
17595;SDS011;8916;47.086;15.920;2022-12-26T02:39:28;37.50;;;21.30;;
17595;SDS011;8916;47.086;15.920;2022-12-26T02:42:22;35.60;;;19.63;;
17595;SDS011;8916;47.086;15.920;2022-12-26T02:45:01;36.08;;;19.88;;
17595;SDS011;8916;47.086;15.920;2022-12-26T02:47:59;31.08;;;17.63;;
17595;SDS011;8916;47.086;15.920;2022-12-26T02:50:37;27.02;;;16.33;;
17595;SDS011;8916;47.086;15.920;2022-12-26T02:53:38;28.73;;;16.25;;
17595;SDS011;8916;47.086;15.920;2022-12-26T02:56:35;32.30;;;15.67;;
17595;SDS011;8916;47.086;15.920;2022-12-26T02:59:29;29.88;;;16.75;;
17595;SDS011;8916;47.086;15.920;2022-12-26T03:02:25;34.50;;;17.10;;
17595;SDS011;8916;47.086;15.920;2022-12-26T03:08:17;34.58;;;18.30;;
17595;SDS011;8916;47.086;15.920;2022-12-26T03:11:11;31.27;;;19.63;;
17595;SDS011;8916;47.086;15.920;2022-12-26T03:14:00;35.60;;;19.15;;
17595;SDS011;8916;47.086;15.920;2022-12-26T03:16:38;37.47;;;19.55;;
17595;SDS011;8916;47.086;15.920;2022-12-26T03:19:25;33.53;;;17.70;;
17595;SDS011;8916;47.086;15.920;2022-12-26T03:22:00;32.22;;;17.55;;
17595;SDS011;8916;47.086;15.920;2022-12-26T03:24:52;30.08;;;16.50;;
17595;SDS011;8916;47.086;15.920;2022-12-26T03:27:39;29.15;;;15.35;;
17595;SDS011;8916;47.086;15.920;2022-12-26T03:30:08;31.77;;;15.73;;
17595;SDS011;8916;47.086;15.920;2022-12-26T03:32:53;38.25;;;17.77;;
17595;SDS011;8916;47.086;15.920;2022-12-26T03:35:24;31.98;;;17.92;;
17595;SDS011;8916;47.086;15.920;2022-12-26T03:38:03;30.48;;;17.10;;
17595;SDS011;8916;47.086;15.920;2022-12-26T03:40:39;31.10;;;17.75;;
17595;SDS011;8916;47.086;15.920;2022-12-26T03:46:53;27.38;;;16.83;;
17595;SDS011;8916;47.086;15.920;2022-12-26T03:49:55;37.78;;;16.65;;
17595;SDS011;8916;47.086;15.920;2022-12-26T03:52:49;36.83;;;17.38;;
17595;SDS011;8916;47.086;15.920;2022-12-26T03:55:50;28.02;;;15.52;;
17595;SDS011;8916;47.086;15.920;2022-12-26T03:58:43;31.20;;;16.52;;
17595;SDS011;8916;47.086;15.920;2022-12-26T04:01:36;35.20;;;17.98;;
17595;SDS011;8916;47.086;15.920;2022-12-26T04:04:28;32.35;;;17.77;;
17595;SDS011;8916;47.086;15.920;2022-12-26T04:07:18;37.42;;;16.67;;
17595;SDS011;8916;47.086;15.920;2022-12-26T04:10:25;31.40;;;15.55;;
17595;SDS011;8916;47.086;15.920;2022-12-26T04:13:18;28.85;;;16.05;;
17595;SDS011;8916;47.086;15.920;2022-12-26T04:16:11;35.53;;;15.50;;
17595;SDS011;8916;47.086;15.920;2022-12-26T04:19:05;24.98;;;14.48;;
17595;SDS011;8916;47.086;15.920;2022-12-26T04:21:55;22.23;;;12.85;;
17595;SDS011;8916;47.086;15.920;2022-12-26T04:24:51;30.63;;;15.05;;
17595;SDS011;8916;47.086;15.920;2022-12-26T04:27:44;35.22;;;16.63;;
17595;SDS011;8916;47.086;15.920;2022-12-26T04:30:32;28.15;;;15.15;;
17595;SDS011;8916;47.086;15.920;2022-12-26T04:33:23;31.92;;;17.05;;
17595;SDS011;8916;47.086;15.920;2022-12-26T04:36:16;33.95;;;17.13;;
17595;SDS011;8916;47.086;15.920;2022-12-26T04:39:11;32.95;;;16.98;;
17595;SDS011;8916;47.086;15.920;2022-12-26T04:42:02;37.05;;;17.75;;
17595;SDS011;8916;47.086;15.920;2022-12-26T04:44:50;35.78;;;18.73;;
17595;SDS011;8916;47.086;15.920;2022-12-26T04:47:21;36.53;;;17.10;;
17595;SDS011;8916;47.086;15.920;2022-12-26T04:49:51;34.05;;;16.48;;
17595;SDS011;8916;47.086;15.920;2022-12-26T04:52:38;26.43;;;14.50;;
17595;SDS011;8916;47.086;15.920;2022-12-26T04:55:25;28.17;;;13.97;;
17595;SDS011;8916;47.086;15.920;2022-12-26T04:57:55;20.77;;;13.13;;
17595;SDS011;8916;47.086;15.920;2022-12-26T05:00:26;26.40;;;14.00;;
17595;SDS011;8916;47.086;15.920;2022-12-26T05:02:57;28.83;;;14.38;;
17595;SDS011;8916;47.086;15.920;2022-12-26T05:05:46;24.63;;;13.07;;
17595;SDS011;8916;47.086;15.920;2022-12-26T05:08:37;27.10;;;13.35;;
17595;SDS011;8916;47.086;15.920;2022-12-26T05:11:26;26.13;;;12.63;;
17595;SDS011;8916;47.086;15.920;2022-12-26T05:13:58;26.50;;;13.05;;
17595;SDS011;8916;47.086;15.920;2022-12-26T05:16:28;23.05;;;13.13;;
17595;SDS011;8916;47.086;15.920;2022-12-26T05:19:16;26.55;;;14.13;;
17595;SDS011;8916;47.086;15.920;2022-12-26T05:22:03;24.70;;;12.27;;
17595;SDS011;8916;47.086;15.920;2022-12-26T05:24:51;32.10;;;15.68;;
17595;SDS011;8916;47.086;15.920;2022-12-26T05:27:39;32.28;;;14.90;;
17595;SDS011;8916;47.086;15.920;2022-12-26T05:30:28;28.65;;;13.07;;
17595;SDS011;8916;47.086;15.920;2022-12-26T05:32:57;24.45;;;12.05;;
17595;SDS011;8916;47.086;15.920;2022-12-26T05:35:45;24.13;;;12.15;;
17595;SDS011;8916;47.086;15.920;2022-12-26T05:38:14;24.27;;;11.35;;
17595;SDS011;8916;47.086;15.920;2022-12-26T05:40:43;35.53;;;15.82;;
17595;SDS011;8916;47.086;15.920;2022-12-26T05:43:13;34.92;;;14.23;;
17595;SDS011;8916;47.086;15.920;2022-12-26T05:45:42;28.98;;;14.02;;
17595;SDS011;8916;47.086;15.920;2022-12-26T05:48:13;25.75;;;12.52;;
17595;SDS011;8916;47.086;15.920;2022-12-26T05:50:42;23.48;;;11.98;;
17595;SDS011;8916;47.086;15.920;2022-12-26T05:53:13;30.90;;;13.88;;
17595;SDS011;8916;47.086;15.920;2022-12-26T05:55:42;21.08;;;11.98;;
17595;SDS011;8916;47.086;15.920;2022-12-26T05:58:11;22.55;;;12.25;;
17595;SDS011;8916;47.086;15.920;2022-12-26T06:00:40;21.67;;;13.15;;
17595;SDS011;8916;47.086;15.920;2022-12-26T06:03:09;24.25;;;11.55;;
17595;SDS011;8916;47.086;15.920;2022-12-26T06:05:39;21.27;;;12.18;;
17595;SDS011;8916;47.086;15.920;2022-12-26T06:08:08;21.58;;;12.45;;
17595;SDS011;8916;47.086;15.920;2022-12-26T06:10:39;23.45;;;12.48;;
17595;SDS011;8916;47.086;15.920;2022-12-26T06:13:08;27.27;;;14.77;;
17595;SDS011;8916;47.086;15.920;2022-12-26T06:15:37;26.67;;;14.60;;
17595;SDS011;8916;47.086;15.920;2022-12-26T06:18:06;28.10;;;13.88;;
17595;SDS011;8916;47.086;15.920;2022-12-26T06:20:37;23.67;;;12.52;;
17595;SDS011;8916;47.086;15.920;2022-12-26T06:23:06;28.20;;;14.75;;
17595;SDS011;8916;47.086;15.920;2022-12-26T06:25:36;29.52;;;14.20;;
17595;SDS011;8916;47.086;15.920;2022-12-26T06:28:07;27.77;;;14.98;;
17595;SDS011;8916;47.086;15.920;2022-12-26T06:30:37;23.05;;;12.98;;
17595;SDS011;8916;47.086;15.920;2022-12-26T06:33:06;23.38;;;12.85;;
17595;SDS011;8916;47.086;15.920;2022-12-26T06:35:35;28.58;;;13.77;;
17595;SDS011;8916;47.086;15.920;2022-12-26T06:38:04;27.50;;;13.32;;
17595;SDS011;8916;47.086;15.920;2022-12-26T06:40:33;24.95;;;13.35;;
17595;SDS011;8916;47.086;15.920;2022-12-26T06:43:08;29.77;;;14.07;;
17595;SDS011;8916;47.086;15.920;2022-12-26T06:45:37;28.25;;;14.38;;
17595;SDS011;8916;47.086;15.920;2022-12-26T06:48:07;23.65;;;12.20;;
17595;SDS011;8916;47.086;15.920;2022-12-26T06:50:36;23.92;;;13.43;;
17595;SDS011;8916;47.086;15.920;2022-12-26T06:53:05;27.10;;;13.25;;
17595;SDS011;8916;47.086;15.920;2022-12-26T06:55:34;26.95;;;13.75;;
17595;SDS011;8916;47.086;15.920;2022-12-26T06:58:04;25.70;;;14.30;;
17595;SDS011;8916;47.086;15.920;2022-12-26T07:00:34;34.53;;;16.08;;
17595;SDS011;8916;47.086;15.920;2022-12-26T07:03:03;33.47;;;16.67;;
17595;SDS011;8916;47.086;15.920;2022-12-26T07:05:34;29.77;;;16.15;;
17595;SDS011;8916;47.086;15.920;2022-12-26T07:08:03;31.20;;;16.02;;
17595;SDS011;8916;47.086;15.920;2022-12-26T07:10:34;33.92;;;16.15;;
17595;SDS011;8916;47.086;15.920;2022-12-26T07:13:04;30.88;;;16.25;;
17595;SDS011;8916;47.086;15.920;2022-12-26T07:15:34;33.33;;;14.93;;
17595;SDS011;8916;47.086;15.920;2022-12-26T07:18:03;27.85;;;13.57;;
17595;SDS011;8916;47.086;15.920;2022-12-26T07:20:32;26.08;;;14.25;;
17595;SDS011;8916;47.086;15.920;2022-12-26T07:23:02;23.92;;;13.85;;
17595;SDS011;8916;47.086;15.920;2022-12-26T07:25:31;31.05;;;13.88;;
17595;SDS011;8916;47.086;15.920;2022-12-26T07:28:00;24.95;;;13.38;;
17595;SDS011;8916;47.086;15.920;2022-12-26T07:30:29;23.85;;;13.85;;
17595;SDS011;8916;47.086;15.920;2022-12-26T07:32:59;28.02;;;13.13;;
17595;SDS011;8916;47.086;15.920;2022-12-26T07:35:29;25.27;;;12.73;;
17595;SDS011;8916;47.086;15.920;2022-12-26T07:37:58;20.58;;;12.18;;
17595;SDS011;8916;47.086;15.920;2022-12-26T07:40:27;22.98;;;11.73;;
17595;SDS011;8916;47.086;15.920;2022-12-26T07:42:56;22.45;;;11.95;;
17595;SDS011;8916;47.086;15.920;2022-12-26T07:45:25;19.70;;;11.85;;
17595;SDS011;8916;47.086;15.920;2022-12-26T07:47:55;19.88;;;12.05;;
17595;SDS011;8916;47.086;15.920;2022-12-26T07:50:27;25.02;;;12.40;;
17595;SDS011;8916;47.086;15.920;2022-12-26T07:52:57;27.38;;;13.60;;
17595;SDS011;8916;47.086;15.920;2022-12-26T07:55:27;27.00;;;14.32;;
17595;SDS011;8916;47.086;15.920;2022-12-26T07:57:56;24.00;;;13.73;;
17595;SDS011;8916;47.086;15.920;2022-12-26T08:00:25;28.77;;;14.55;;
17595;SDS011;8916;47.086;15.920;2022-12-26T08:02:54;27.88;;;15.38;;
17595;SDS011;8916;47.086;15.920;2022-12-26T08:05:34;24.95;;;13.13;;
17595;SDS011;8916;47.086;15.920;2022-12-26T08:08:03;23.60;;;13.15;;
17595;SDS011;8916;47.086;15.920;2022-12-26T08:10:32;24.70;;;14.68;;
17595;SDS011;8916;47.086;15.920;2022-12-26T08:13:02;25.58;;;11.68;;
17595;SDS011;8916;47.086;15.920;2022-12-26T08:15:31;24.35;;;12.35;;
17595;SDS011;8916;47.086;15.920;2022-12-26T08:18:00;21.55;;;11.75;;
17595;SDS011;8916;47.086;15.920;2022-12-26T08:20:29;23.30;;;11.15;;
17595;SDS011;8916;47.086;15.920;2022-12-26T08:23:00;18.45;;;10.38;;
17595;SDS011;8916;47.086;15.920;2022-12-26T08:25:29;19.88;;;9.70;;
17595;SDS011;8916;47.086;15.920;2022-12-26T08:27:59;16.45;;;10.27;;
17595;SDS011;8916;47.086;15.920;2022-12-26T08:30:28;19.95;;;10.82;;
17595;SDS011;8916;47.086;15.920;2022-12-26T08:32:57;25.88;;;12.43;;
17595;SDS011;8916;47.086;15.920;2022-12-26T08:35:26;20.95;;;10.45;;
17595;SDS011;8916;47.086;15.920;2022-12-26T08:37:56;19.42;;;10.77;;
17595;SDS011;8916;47.086;15.920;2022-12-26T08:40:26;21.15;;;11.70;;
17595;SDS011;8916;47.086;15.920;2022-12-26T08:43:10;21.80;;;11.55;;
17595;SDS011;8916;47.086;15.920;2022-12-26T08:45:59;27.70;;;14.00;;
17595;SDS011;8916;47.086;15.920;2022-12-26T08:48:31;27.27;;;12.30;;
17595;SDS011;8916;47.086;15.920;2022-12-26T08:51:04;23.48;;;13.07;;
17595;SDS011;8916;47.086;15.920;2022-12-26T08:53:36;26.55;;;13.35;;
17595;SDS011;8916;47.086;15.920;2022-12-26T08:56:08;22.33;;;13.40;;
17595;SDS011;8916;47.086;15.920;2022-12-26T08:58:40;24.42;;;11.95;;
17595;SDS011;8916;47.086;15.920;2022-12-26T09:01:11;27.85;;;11.32;;
17595;SDS011;8916;47.086;15.920;2022-12-26T09:03:43;18.88;;;10.32;;
17595;SDS011;8916;47.086;15.920;2022-12-26T09:06:13;18.75;;;10.32;;
17595;SDS011;8916;47.086;15.920;2022-12-26T09:08:43;21.45;;;10.50;;
17595;SDS011;8916;47.086;15.920;2022-12-26T09:11:14;18.60;;;10.27;;
17595;SDS011;8916;47.086;15.920;2022-12-26T09:16:18;17.52;;;10.40;;
17595;SDS011;8916;47.086;15.920;2022-12-26T09:18:52;18.73;;;10.15;;
17595;SDS011;8916;47.086;15.920;2022-12-26T09:21:23;17.30;;;10.30;;
17595;SDS011;8916;47.086;15.920;2022-12-26T09:23:55;16.67;;;9.93;;
17595;SDS011;8916;47.086;15.920;2022-12-26T09:26:26;20.35;;;10.55;;
17595;SDS011;8916;47.086;15.920;2022-12-26T09:28:57;17.75;;;9.18;;
17595;SDS011;8916;47.086;15.920;2022-12-26T09:31:27;18.52;;;8.82;;
17595;SDS011;8916;47.086;15.920;2022-12-26T09:33:59;17.65;;;9.57;;
17595;SDS011;8916;47.086;15.920;2022-12-26T09:36:30;15.07;;;9.52;;
17595;SDS011;8916;47.086;15.920;2022-12-26T09:39:05;20.88;;;9.40;;
17595;SDS011;8916;47.086;15.920;2022-12-26T09:41:41;20.20;;;9.52;;
17595;SDS011;8916;47.086;15.920;2022-12-26T09:44:27;20.65;;;10.80;;
17595;SDS011;8916;47.086;15.920;2022-12-26T09:47:14;23.83;;;12.07;;
17595;SDS011;8916;47.086;15.920;2022-12-26T09:50:03;22.98;;;12.35;;
17595;SDS011;8916;47.086;15.920;2022-12-26T09:52:42;23.88;;;11.43;;
17595;SDS011;8916;47.086;15.920;2022-12-26T09:55:24;22.40;;;10.85;;
17595;SDS011;8916;47.086;15.920;2022-12-26T09:58:07;18.10;;;10.40;;
17595;SDS011;8916;47.086;15.920;2022-12-26T10:00:48;18.05;;;10.40;;
17595;SDS011;8916;47.086;15.920;2022-12-26T10:03:21;18.38;;;10.10;;
17595;SDS011;8916;47.086;15.920;2022-12-26T10:11:51;23.48;;;10.73;;
17595;SDS011;8916;47.086;15.920;2022-12-26T10:14:39;21.52;;;11.07;;
17595;SDS011;8916;47.086;15.920;2022-12-26T10:17:28;23.08;;;10.82;;
17595;SDS011;8916;47.086;15.920;2022-12-26T10:20:12;23.23;;;11.23;;
17595;SDS011;8916;47.086;15.920;2022-12-26T10:22:55;21.30;;;11.18;;
17595;SDS011;8916;47.086;15.920;2022-12-26T10:25:54;19.08;;;10.23;;
17595;SDS011;8916;47.086;15.920;2022-12-26T10:28:32;17.35;;;9.30;;
17595;SDS011;8916;47.086;15.920;2022-12-26T10:31:10;17.52;;;9.40;;
17595;SDS011;8916;47.086;15.920;2022-12-26T10:33:48;18.58;;;9.45;;
17595;SDS011;8916;47.086;15.920;2022-12-26T10:36:30;17.20;;;9.32;;
17595;SDS011;8916;47.086;15.920;2022-12-26T10:39:09;16.25;;;9.43;;
17595;SDS011;8916;47.086;15.920;2022-12-26T10:41:45;19.15;;;10.02;;
17595;SDS011;8916;47.086;15.920;2022-12-26T10:44:18;15.70;;;9.77;;
17595;SDS011;8916;47.086;15.920;2022-12-26T10:49:52;18.38;;;10.10;;
17595;SDS011;8916;47.086;15.920;2022-12-26T10:52:26;24.33;;;10.80;;
17595;SDS011;8916;47.086;15.920;2022-12-26T10:55:01;20.63;;;11.15;;
17595;SDS011;8916;47.086;15.920;2022-12-26T10:57:51;17.30;;;9.43;;
17595;SDS011;8916;47.086;15.920;2022-12-26T11:00:23;24.13;;;11.20;;
17595;SDS011;8916;47.086;15.920;2022-12-26T11:03:02;17.60;;;9.32;;
17595;SDS011;8916;47.086;15.920;2022-12-26T11:05:35;19.85;;;10.07;;
17595;SDS011;8916;47.086;15.920;2022-12-26T11:08:28;19.27;;;10.00;;
17595;SDS011;8916;47.086;15.920;2022-12-26T11:11:11;22.83;;;11.95;;
17595;SDS011;8916;47.086;15.920;2022-12-26T11:13:48;23.15;;;10.93;;
17595;SDS011;8916;47.086;15.920;2022-12-26T11:16:29;17.90;;;9.98;;
17595;SDS011;8916;47.086;15.920;2022-12-26T11:19:03;18.70;;;10.00;;
17595;SDS011;8916;47.086;15.920;2022-12-26T11:21:32;18.23;;;10.00;;
17595;SDS011;8916;47.086;15.920;2022-12-26T11:24:14;19.23;;;10.75;;
17595;SDS011;8916;47.086;15.920;2022-12-26T11:26:47;17.02;;;9.20;;
17595;SDS011;8916;47.086;15.920;2022-12-26T11:29:17;21.45;;;10.35;;
17595;SDS011;8916;47.086;15.920;2022-12-26T11:31:49;15.82;;;9.90;;
17595;SDS011;8916;47.086;15.920;2022-12-26T11:34:26;19.20;;;10.63;;
17595;SDS011;8916;47.086;15.920;2022-12-26T11:37:00;16.90;;;9.18;;
17595;SDS011;8916;47.086;15.920;2022-12-26T11:39:33;20.90;;;9.07;;
17595;SDS011;8916;47.086;15.920;2022-12-26T11:42:07;16.85;;;9.23;;
17595;SDS011;8916;47.086;15.920;2022-12-26T11:44:39;20.58;;;10.40;;
17595;SDS011;8916;47.086;15.920;2022-12-26T11:47:12;22.05;;;9.55;;
17595;SDS011;8916;47.086;15.920;2022-12-26T11:49:48;15.85;;;9.45;;
17595;SDS011;8916;47.086;15.920;2022-12-26T11:52:30;17.00;;;9.43;;
17595;SDS011;8916;47.086;15.920;2022-12-26T11:58:00;19.60;;;9.55;;
17595;SDS011;8916;47.086;15.920;2022-12-26T12:00:43;18.98;;;9.95;;
17595;SDS011;8916;47.086;15.920;2022-12-26T12:03:44;14.40;;;8.68;;
17595;SDS011;8916;47.086;15.920;2022-12-26T12:06:21;15.00;;;8.77;;
17595;SDS011;8916;47.086;15.920;2022-12-26T12:09:15;12.68;;;8.75;;
17595;SDS011;8916;47.086;15.920;2022-12-26T12:14:27;15.95;;;8.23;;
17595;SDS011;8916;47.086;15.920;2022-12-26T12:17:22;13.48;;;7.65;;
17595;SDS011;8916;47.086;15.920;2022-12-26T12:20:02;14.80;;;8.50;;
17595;SDS011;8916;47.086;15.920;2022-12-26T12:22:51;13.70;;;8.15;;
17595;SDS011;8916;47.086;15.920;2022-12-26T12:25:38;18.35;;;8.52;;
17595;SDS011;8916;47.086;15.920;2022-12-26T12:32:04;13.70;;;7.72;;
17595;SDS011;8916;47.086;15.920;2022-12-26T12:37:43;12.45;;;7.97;;
17595;SDS011;8916;47.086;15.920;2022-12-26T12:40:40;13.70;;;7.47;;
17595;SDS011;8916;47.086;15.920;2022-12-26T12:43:18;14.05;;;7.95;;
17595;SDS011;8916;47.086;15.920;2022-12-26T12:45:57;14.20;;;7.03;;
17595;SDS011;8916;47.086;15.920;2022-12-26T12:48:48;13.38;;;6.85;;
17595;SDS011;8916;47.086;15.920;2022-12-26T12:51:32;11.88;;;7.70;;
17595;SDS011;8916;47.086;15.920;2022-12-26T12:54:22;18.23;;;7.88;;
17595;SDS011;8916;47.086;15.920;2022-12-26T12:57:18;12.35;;;7.15;;
17595;SDS011;8916;47.086;15.920;2022-12-26T13:00:00;14.63;;;7.85;;
17595;SDS011;8916;47.086;15.920;2022-12-26T13:02:43;11.77;;;7.43;;
17595;SDS011;8916;47.086;15.920;2022-12-26T13:08:10;13.52;;;6.93;;
17595;SDS011;8916;47.086;15.920;2022-12-26T13:10:48;14.63;;;7.65;;
17595;SDS011;8916;47.086;15.920;2022-12-26T13:13:24;15.68;;;7.97;;
17595;SDS011;8916;47.086;15.920;2022-12-26T13:16:04;17.00;;;7.88;;
17595;SDS011;8916;47.086;15.920;2022-12-26T13:18:41;17.23;;;8.75;;
17595;SDS011;8916;47.086;15.920;2022-12-26T13:23:49;13.75;;;8.00;;
17595;SDS011;8916;47.086;15.920;2022-12-26T13:26:47;15.07;;;7.53;;
17595;SDS011;8916;47.086;15.920;2022-12-26T13:29:34;12.70;;;7.30;;
17595;SDS011;8916;47.086;15.920;2022-12-26T13:32:14;16.13;;;7.60;;
17595;SDS011;8916;47.086;15.920;2022-12-26T13:34:48;16.90;;;7.85;;
17595;SDS011;8916;47.086;15.920;2022-12-26T13:40:24;11.98;;;7.35;;
17595;SDS011;8916;47.086;15.920;2022-12-26T13:43:00;14.40;;;7.13;;
17595;SDS011;8916;47.086;15.920;2022-12-26T13:45:53;13.05;;;6.70;;
17595;SDS011;8916;47.086;15.920;2022-12-26T13:51:54;12.00;;;6.65;;
17595;SDS011;8916;47.086;15.920;2022-12-26T13:54:26;14.52;;;6.90;;
17595;SDS011;8916;47.086;15.920;2022-12-26T14:00:14;12.85;;;6.30;;
17595;SDS011;8916;47.086;15.920;2022-12-26T14:06:22;11.30;;;6.28;;
17595;SDS011;8916;47.086;15.920;2022-12-26T14:09:25;11.48;;;6.32;;
17595;SDS011;8916;47.086;15.920;2022-12-26T14:12:28;11.30;;;5.75;;
17595;SDS011;8916;47.086;15.920;2022-12-26T14:15:30;12.32;;;6.88;;
17595;SDS011;8916;47.086;15.920;2022-12-26T14:18:28;9.77;;;6.55;;
17595;SDS011;8916;47.086;15.920;2022-12-26T14:21:21;11.65;;;6.80;;
17595;SDS011;8916;47.086;15.920;2022-12-26T14:24:08;13.35;;;7.07;;
17595;SDS011;8916;47.086;15.920;2022-12-26T14:27:05;11.82;;;6.82;;
17595;SDS011;8916;47.086;15.920;2022-12-26T14:29:54;12.52;;;6.47;;
17595;SDS011;8916;47.086;15.920;2022-12-26T14:32:49;10.00;;;6.15;;
17595;SDS011;8916;47.086;15.920;2022-12-26T14:35:58;11.63;;;6.55;;
17595;SDS011;8916;47.086;15.920;2022-12-26T14:38:43;11.65;;;6.70;;
17595;SDS011;8916;47.086;15.920;2022-12-26T14:41:19;12.90;;;6.55;;
17595;SDS011;8916;47.086;15.920;2022-12-26T14:44:08;13.45;;;6.55;;
17595;SDS011;8916;47.086;15.920;2022-12-26T14:47:08;15.27;;;7.53;;
17595;SDS011;8916;47.086;15.920;2022-12-26T14:49:40;14.20;;;7.70;;
17595;SDS011;8916;47.086;15.920;2022-12-26T15:07:42;17.20;;;8.18;;
17595;SDS011;8916;47.086;15.920;2022-12-26T15:14:08;12.23;;;7.47;;
17595;SDS011;8916;47.086;15.920;2022-12-26T15:17:09;17.45;;;9.15;;
17595;SDS011;8916;47.086;15.920;2022-12-26T15:20:10;15.85;;;8.70;;
17595;SDS011;8916;47.086;15.920;2022-12-26T15:23:31;15.80;;;8.80;;
17595;SDS011;8916;47.086;15.920;2022-12-26T15:26:46;16.30;;;7.97;;
17595;SDS011;8916;47.086;15.920;2022-12-26T15:29:55;15.13;;;6.72;;
17595;SDS011;8916;47.086;15.920;2022-12-26T15:32:49;13.40;;;6.90;;
17595;SDS011;8916;47.086;15.920;2022-12-26T15:35:27;17.27;;;9.82;;
17595;SDS011;8916;47.086;15.920;2022-12-26T15:38:14;14.63;;;8.68;;
17595;SDS011;8916;47.086;15.920;2022-12-26T15:40:57;16.48;;;8.93;;
17595;SDS011;8916;47.086;15.920;2022-12-26T15:43:46;16.40;;;9.85;;
17595;SDS011;8916;47.086;15.920;2022-12-26T15:46:26;15.52;;;6.90;;
17595;SDS011;8916;47.086;15.920;2022-12-26T15:49:01;13.32;;;7.00;;
17595;SDS011;8916;47.086;15.920;2022-12-26T15:51:55;17.63;;;10.38;;
17595;SDS011;8916;47.086;15.920;2022-12-26T15:57:56;17.02;;;8.18;;
17595;SDS011;8916;47.086;15.920;2022-12-26T16:00:30;16.15;;;7.88;;
17595;SDS011;8916;47.086;15.920;2022-12-26T16:03:23;18.55;;;7.13;;
17595;SDS011;8916;47.086;15.920;2022-12-26T16:06:11;15.32;;;6.60;;
17595;SDS011;8916;47.086;15.920;2022-12-26T16:08:59;13.35;;;6.28;;
17595;SDS011;8916;47.086;15.920;2022-12-26T16:11:53;11.10;;;6.45;;
17595;SDS011;8916;47.086;15.920;2022-12-26T16:14:27;12.00;;;7.00;;
17595;SDS011;8916;47.086;15.920;2022-12-26T16:17:15;24.77;;;11.43;;
17595;SDS011;8916;47.086;15.920;2022-12-26T16:19:50;43.63;;;18.02;;
17595;SDS011;8916;47.086;15.920;2022-12-26T16:22:24;36.28;;;17.88;;
17595;SDS011;8916;47.086;15.920;2022-12-26T16:25:14;36.63;;;15.88;;
17595;SDS011;8916;47.086;15.920;2022-12-26T16:27:53;30.50;;;12.93;;
17595;SDS011;8916;47.086;15.920;2022-12-26T16:30:26;21.65;;;10.82;;
17595;SDS011;8916;47.086;15.920;2022-12-26T16:33:04;24.77;;;11.00;;
17595;SDS011;8916;47.086;15.920;2022-12-26T16:35:35;40.40;;;18.08;;
17595;SDS011;8916;47.086;15.920;2022-12-26T16:38:11;33.72;;;17.08;;
17595;SDS011;8916;47.086;15.920;2022-12-26T16:40:43;28.95;;;13.50;;
17595;SDS011;8916;47.086;15.920;2022-12-26T16:43:22;26.73;;;12.43;;
17595;SDS011;8916;47.086;15.920;2022-12-26T16:45:58;32.17;;;13.07;;
17595;SDS011;8916;47.086;15.920;2022-12-26T16:48:31;26.50;;;11.85;;